createdAt,value
2019-06-07T00:01:16.187Z,75.91
2019-06-07T00:03:46.097Z,75.26
2019-06-07T00:06:21.310Z,75.15
2019-06-07T00:08:46.538Z,74.62
2019-06-07T00:11:20.292Z,74.93
2019-06-07T00:13:47.208Z,76.00
2019-06-07T00:16:19.885Z,77.06
2019-06-07T00:18:46.614Z,76.06
2019-06-07T00:21:17.856Z,76.53
2019-06-07T00:23:46.157Z,76.94
2019-06-07T00:26:18.192Z,76.62
2019-06-07T00:28:45.609Z,76.27
2019-06-07T00:31:17.260Z,78.68
2019-06-07T00:33:45.081Z,76.56
2019-06-07T00:36:16.222Z,76.43
2019-06-07T00:38:44.707Z,77.03
2019-06-07T00:41:15.010Z,76.61
2019-06-07T00:43:44.130Z,75.48
2019-06-07T00:46:15.743Z,75.61
2019-06-07T00:48:43.552Z,75.92
2019-06-07T00:51:14.070Z,75.92
2019-06-07T00:53:45.512Z,76.00
2019-06-07T00:56:16.196Z,75.83
2019-06-07T00:58:44.974Z,77.48
2019-06-07T01:01:17.599Z,77.63
2019-06-07T01:03:44.584Z,77.08
2019-06-07T01:06:14.920Z,78.11
2019-06-07T01:08:43.896Z,76.17
2019-06-07T01:11:13.603Z,76.24
2019-06-07T01:13:42.600Z,75.98
2019-06-07T01:16:11.696Z,76.61
2019-06-07T01:18:46.159Z,76.08
2019-06-07T01:21:11.629Z,77.89
2019-06-07T01:24:08.095Z,76.59
2019-06-07T01:26:11.972Z,77.37
2019-06-07T01:28:40.865Z,77.38
2019-06-07T01:31:10.007Z,78.98
2019-06-07T01:33:50.881Z,78.69
2019-06-07T01:36:10.097Z,77.05
2019-06-07T01:38:39.054Z,76.19
2019-06-07T01:41:09.210Z,75.90
2019-06-07T01:43:38.102Z,78.01
2019-06-07T01:46:07.503Z,79.26
2019-06-07T01:48:48.950Z,78.98
2019-06-07T01:51:07.419Z,77.32
2019-06-07T01:53:36.369Z,76.83
2019-06-07T01:56:05.219Z,77.22
2019-06-07T01:58:34.113Z,76.99
2019-06-07T02:01:03.112Z,77.05
2019-06-07T02:03:33.315Z,77.49
2019-06-07T02:06:02.539Z,77.46
2019-06-07T02:08:34.208Z,78.33
2019-06-07T02:11:01.851Z,78.33
2019-06-07T02:13:30.876Z,79.48
2019-06-07T02:15:59.949Z,78.30
2019-06-07T02:18:34.339Z,78.48
2019-06-07T02:20:59.358Z,79.11
2019-06-07T02:23:31.101Z,77.95
2019-06-07T02:25:58.778Z,78.47
2019-06-07T02:28:42.172Z,78.85
2019-06-07T02:31:00.613Z,77.97
2019-06-07T02:33:34.175Z,81.63
2019-06-07T02:35:59.361Z,79.92
2019-06-07T02:38:35.930Z,79.04
2019-06-07T02:40:58.781Z,79.17
2019-06-07T02:43:32.411Z,78.23
2019-06-07T02:46:23.332Z,77.79
2019-06-07T02:48:35.358Z,79.15
2019-06-07T02:50:59.842Z,80.05
2019-06-07T02:53:30.762Z,77.13
2019-06-07T02:56:34.917Z,78.77
2019-06-07T02:58:35.284Z,78.00
2019-06-07T03:01:08.661Z,77.71
2019-06-07T03:03:39.462Z,78.08
2019-06-07T03:06:05.516Z,78.14
2019-06-07T03:08:36.599Z,79.65
2019-06-07T03:11:06.144Z,77.80
2019-06-07T03:13:40.783Z,79.28
2019-06-07T03:16:11.119Z,79.16
2019-06-07T03:19:01.301Z,80.21
2019-06-07T03:21:33.788Z,79.00
2019-06-07T03:24:03.795Z,78.40
2019-06-07T03:26:42.488Z,78.81
2019-06-07T03:29:03.729Z,80.31
2019-06-07T03:31:41.625Z,79.36
2019-06-07T03:34:03.384Z,77.95
2019-06-07T03:36:32.775Z,78.74
2019-06-07T03:39:02.775Z,77.92
2019-06-07T03:41:36.917Z,79.91
2019-06-07T03:44:02.299Z,82.36
2019-06-07T03:46:35.791Z,79.94
2019-06-07T03:49:02.320Z,80.16
2019-06-07T03:51:32.910Z,79.70
2019-06-07T03:54:02.060Z,79.58
2019-06-07T03:56:31.866Z,80.40
2019-06-07T03:59:01.485Z,79.37
2019-06-07T04:01:31.963Z,78.82
2019-06-07T04:04:00.902Z,77.94
2019-06-07T04:06:32.560Z,78.50
2019-06-07T04:09:00.359Z,77.94
2019-06-07T04:11:30.067Z,78.36
2019-06-07T04:13:59.131Z,78.12
2019-06-07T04:16:28.941Z,77.89
2019-06-07T04:18:58.559Z,78.33
2019-06-07T04:21:29.743Z,78.78
2019-06-07T04:23:58.078Z,80.88
2019-06-07T04:26:30.934Z,80.89
2019-06-07T04:31:28.354Z,82.98
2019-06-07T04:33:57.437Z,80.79
2019-06-07T04:36:41.813Z,80.11
2019-06-07T04:39:00.129Z,78.52
2019-06-07T04:41:31.020Z,78.60
2019-06-07T04:44:02.682Z,78.55
2019-06-07T04:46:35.178Z,79.71
2019-06-07T04:49:06.138Z,80.85
2019-06-07T04:51:37.233Z,79.98
2019-06-07T04:54:06.684Z,79.11
2019-06-07T04:56:40.305Z,79.28
2019-06-07T04:59:06.415Z,78.97
2019-06-07T05:01:37.458Z,79.45
2019-06-07T05:04:06.246Z,82.38
2019-06-07T05:06:37.385Z,78.34
2019-06-07T05:09:06.554Z,79.41
2019-06-07T05:11:36.443Z,78.38
2019-06-07T05:14:06.009Z,78.38
2019-06-07T05:16:38.348Z,80.09
2019-06-07T05:19:05.533Z,78.03
2019-06-07T05:21:58.336Z,82.79
2019-06-07T05:24:09.509Z,78.62
2019-06-07T05:26:38.743Z,79.25
2019-06-07T05:29:06.318Z,78.69
2019-06-07T05:31:37.481Z,77.87
2019-06-07T05:34:06.008Z,78.94
2019-06-07T05:36:38.597Z,78.52
2019-06-07T05:39:07.841Z,77.87
2019-06-07T05:41:39.328Z,78.20
2019-06-07T05:44:12.801Z,80.39
2019-06-07T05:46:41.962Z,80.24
2019-06-07T05:49:10.969Z,79.79
2019-06-07T05:51:43.292Z,80.41
2019-06-07T05:54:11.206Z,77.25
2019-06-07T05:56:41.161Z,77.25
2019-06-07T05:59:11.343Z,76.48
2019-06-07T06:01:53.142Z,75.58
2019-06-07T06:04:11.583Z,75.90
2019-06-07T06:06:43.759Z,76.51
2019-06-07T06:09:14.164Z,75.84
2019-06-07T06:11:54.851Z,75.15
2019-06-07T06:14:12.373Z,76.00
2019-06-07T06:16:45.380Z,75.31
2019-06-07T06:19:12.303Z,74.07
2019-06-07T06:21:44.817Z,75.06
2019-06-07T06:24:12.150Z,72.86
2019-06-07T06:26:49.951Z,72.30
2019-06-07T06:29:12.272Z,71.45
2019-06-07T06:32:02.523Z,73.99
2019-06-07T06:34:11.903Z,74.79
2019-06-07T06:36:46.624Z,74.31
2019-06-07T06:39:11.728Z,74.60
2019-06-07T06:41:50.770Z,72.68
2019-06-07T06:44:11.253Z,73.04
2019-06-07T06:46:44.775Z,73.44
2019-06-07T06:49:12.006Z,73.61
2019-06-07T06:51:42.982Z,72.72
2019-06-07T06:54:12.346Z,72.86
2019-06-07T06:56:44.854Z,71.55
2019-06-07T06:59:37.357Z,69.96
2019-06-07T07:01:42.670Z,69.08
2019-06-07T07:04:13.612Z,70.78
2019-06-07T07:06:43.154Z,73.62
2019-06-07T07:09:11.940Z,71.13
2019-06-07T07:11:56.304Z,72.49
2019-06-07T07:14:13.085Z,72.31
2019-06-07T07:16:42.847Z,71.92
2019-06-07T07:19:12.422Z,73.21
2019-06-07T07:21:45.090Z,73.35
2019-06-07T07:24:21.825Z,71.71
2019-06-07T07:26:46.796Z,72.77
2019-06-07T07:29:14.307Z,71.34
2019-06-07T07:31:43.132Z,71.87
2019-06-07T07:34:32.419Z,70.06
2019-06-07T07:36:44.807Z,68.41
2019-06-07T07:39:13.896Z,68.72
2019-06-07T07:42:04.489Z,68.26
2019-06-07T07:44:13.315Z,69.01
2019-06-07T07:46:42.105Z,67.03
2019-06-07T07:49:11.434Z,66.99
2019-06-07T07:51:40.298Z,66.30
2019-06-07T07:54:11.250Z,67.76
2019-06-07T07:56:40.333Z,68.56
2019-06-07T07:59:10.230Z,67.71
2019-06-07T08:01:39.139Z,67.30
2019-06-07T08:04:08.441Z,65.36
2019-06-07T08:06:37.428Z,64.82
2019-06-07T08:09:08.146Z,65.72
2019-06-07T08:11:36.969Z,66.13
2019-06-07T08:14:05.849Z,65.09
2019-06-07T08:16:34.637Z,63.83
2019-06-07T08:19:04.569Z,65.49
2019-06-07T08:21:33.649Z,64.24
2019-06-07T08:24:05.277Z,63.62
2019-06-07T08:26:33.215Z,67.01
2019-06-07T08:29:03.103Z,64.34
2019-06-07T08:31:32.082Z,64.60
2019-06-07T08:34:01.054Z,64.69
2019-06-07T08:36:41.200Z,63.75
2019-06-07T08:39:07.198Z,64.35
2019-06-07T08:41:31.228Z,62.96
2019-06-07T08:44:08.600Z,62.08
2019-06-07T08:46:30.651Z,62.35
2019-06-07T08:49:04.259Z,61.60
2019-06-07T08:51:30.075Z,62.13
2019-06-07T08:54:18.756Z,61.76
2019-06-07T08:56:29.491Z,60.27
2019-06-07T08:59:05.538Z,59.17
2019-06-07T09:01:29.117Z,59.09
2019-06-07T09:04:02.665Z,59.41
2019-06-07T09:07:01.643Z,62.52
2019-06-07T09:09:01.976Z,60.36
2019-06-07T09:11:29.599Z,61.73
2019-06-07T09:14:02.206Z,62.51
2019-06-07T09:16:29.022Z,61.09
2019-06-07T09:19:03.838Z,60.19
2019-06-07T09:21:29.874Z,60.62
2019-06-07T09:24:02.939Z,60.39
2019-06-07T09:26:29.602Z,62.90
2019-06-07T09:29:03.281Z,63.40
2019-06-07T09:31:51.280Z,61.57
2019-06-07T09:34:08.328Z,60.47
2019-06-07T09:36:30.500Z,60.62
2019-06-07T09:39:06.451Z,61.85
2019-06-07T09:41:46.831Z,63.58
2019-06-07T09:44:14.340Z,61.38
2019-06-07T09:46:31.895Z,61.28
2019-06-07T09:49:14.213Z,60.87
2019-06-07T09:51:31.212Z,61.33
2019-06-07T09:54:01.276Z,60.09
2019-06-07T09:56:30.738Z,61.97
2019-06-07T09:59:02.627Z,62.05
2019-06-07T10:01:30.156Z,61.79
2019-06-07T10:04:05.860Z,60.82
2019-06-07T10:06:29.784Z,60.64
2019-06-07T10:10:08.279Z,60.18
2019-06-07T10:11:29.101Z,59.86
2019-06-07T10:13:58.343Z,59.57
2019-06-07T10:16:27.293Z,58.72
2019-06-07T10:18:56.193Z,58.36
2019-06-07T10:21:26.304Z,57.91
2019-06-07T10:23:55.196Z,59.33
2019-06-07T10:26:23.986Z,56.63
2019-06-07T10:28:53.658Z,57.82
2019-06-07T10:31:22.595Z,56.20
2019-06-07T10:33:51.480Z,55.38
2019-06-07T10:36:20.372Z,56.23
2019-06-07T10:38:49.365Z,53.97
2019-06-07T10:41:18.256Z,51.67
2019-06-07T10:43:47.155Z,50.18
2019-06-07T10:46:16.140Z,51.96
2019-06-07T10:48:45.030Z,50.40
2019-06-07T10:51:14.780Z,51.32
2019-06-07T10:53:43.939Z,51.68
2019-06-07T10:56:13.400Z,53.40
2019-06-07T10:58:43.668Z,53.73
2019-06-07T11:01:14.330Z,52.88
2019-06-07T11:03:43.205Z,52.88
2019-06-07T11:06:12.328Z,52.06
2019-06-07T11:08:41.281Z,50.58
2019-06-07T11:11:12.093Z,51.02
2019-06-07T11:13:41.214Z,50.35
2019-06-07T11:16:11.257Z,50.61
2019-06-07T11:18:40.124Z,51.25
2019-06-07T11:21:10.075Z,50.86
2019-06-07T11:23:39.136Z,50.94
2019-06-07T11:26:08.537Z,50.60
2019-06-07T11:28:37.430Z,52.81
2019-06-07T11:31:06.409Z,51.88
2019-06-07T11:33:35.418Z,49.48
2019-06-07T11:36:04.411Z,50.02
2019-06-07T11:38:33.403Z,48.79
2019-06-07T11:41:02.191Z,48.55
2019-06-07T11:43:31.084Z,49.72
2019-06-07T11:45:59.977Z,48.32
2019-06-07T11:48:28.868Z,48.42
2019-06-07T11:50:59.292Z,47.11
2019-06-07T11:53:28.420Z,47.30
2019-06-07T11:55:57.282Z,48.47
2019-06-07T11:58:26.193Z,48.54
2019-06-07T12:00:55.070Z,48.42
2019-06-07T12:03:23.954Z,48.70
2019-06-07T12:05:52.741Z,47.58
2019-06-07T12:08:21.531Z,47.13
2019-06-07T12:10:50.323Z,45.68
2019-06-07T12:13:19.418Z,44.87
2019-06-07T12:15:49.279Z,46.39
2019-06-07T12:18:19.687Z,46.57
2019-06-07T12:20:48.755Z,45.22
2019-06-07T12:23:18.099Z,45.62
2019-06-07T12:25:47.177Z,45.53
2019-06-07T12:28:16.811Z,44.92
2019-06-07T12:30:45.752Z,44.39
2019-06-07T12:33:15.497Z,45.63
2019-06-07T12:35:44.455Z,44.69
2019-06-07T12:38:14.558Z,45.35
2019-06-07T12:40:56.771Z,43.45
2019-06-07T12:43:14.686Z,42.62
2019-06-07T12:45:45.500Z,42.25
2019-06-07T12:48:17.596Z,41.83
2019-06-07T12:50:44.768Z,42.07
2019-06-07T12:53:13.783Z,40.72
2019-06-07T12:55:42.818Z,41.31
2019-06-07T12:58:11.857Z,40.97
2019-06-07T13:00:40.845Z,41.22
2019-06-07T13:03:10.862Z,41.55
2019-06-07T13:05:39.786Z,41.98
2019-06-07T13:08:09.361Z,41.15
2019-06-07T13:10:38.253Z,41.26
2019-06-07T13:13:07.430Z,41.03
2019-06-07T13:15:36.412Z,40.75
2019-06-07T13:18:05.439Z,40.94
2019-06-07T13:20:34.329Z,40.70
2019-06-07T13:23:03.223Z,42.57
2019-06-07T13:25:45.558Z,42.31
2019-06-07T13:28:02.642Z,38.83
2019-06-07T13:30:31.743Z,38.92
2019-06-07T13:33:00.643Z,37.78
2019-06-07T13:35:29.772Z,37.30
2019-06-07T13:37:59.809Z,37.27
2019-06-07T13:40:28.839Z,37.20
2019-06-07T13:42:57.731Z,36.28
2019-06-07T13:45:27.946Z,37.16
2019-06-07T13:47:56.947Z,35.66
2019-06-07T13:50:26.073Z,35.62
2019-06-07T13:52:55.138Z,35.76
2019-06-07T13:55:24.068Z,35.46
2019-06-07T13:57:53.025Z,36.11
2019-06-07T14:00:24.792Z,36.47
2019-06-07T14:02:53.880Z,37.79
2019-06-07T14:05:23.112Z,35.85
2019-06-07T14:07:52.079Z,34.61
2019-06-07T14:10:21.636Z,34.69
2019-06-07T14:12:50.777Z,35.15
2019-06-07T14:15:20.480Z,34.87
2019-06-07T14:17:50.606Z,35.52
2019-06-07T14:20:25.421Z,34.01
2019-06-07T14:22:54.321Z,33.95
2019-06-07T14:25:23.096Z,35.63
2019-06-07T14:27:52.006Z,34.12
2019-06-07T14:30:21.858Z,34.59
2019-06-07T14:32:50.917Z,34.39
2019-06-07T14:35:19.973Z,33.96
2019-06-07T14:37:48.801Z,34.13
2019-06-07T14:40:19.438Z,33.57
2019-06-07T14:42:48.324Z,33.19
2019-06-07T14:45:17.731Z,33.12
2019-06-07T14:47:46.620Z,34.18
2019-06-07T14:50:15.805Z,33.56
2019-06-07T14:52:44.723Z,33.06
2019-06-07T14:55:14.014Z,32.57
2019-06-07T14:57:42.901Z,34.85
2019-06-07T15:00:14.365Z,32.72
2019-06-07T15:02:43.244Z,33.55
2019-06-07T15:05:13.309Z,33.10
2019-06-07T15:07:42.152Z,32.61
2019-06-07T15:10:11.766Z,32.50
2019-06-07T15:12:40.562Z,33.21
2019-06-07T15:15:12.180Z,33.99
2019-06-07T15:17:42.737Z,33.45
2019-06-07T15:20:12.447Z,33.78
2019-06-07T15:22:41.446Z,35.58
2019-06-07T15:25:10.849Z,37.90
2019-06-07T15:27:39.738Z,37.73
2019-06-07T15:30:11.760Z,37.73
2019-06-07T15:32:40.797Z,41.30
2019-06-07T15:35:10.709Z,41.66
2019-06-07T15:37:39.709Z,43.40
2019-06-07T15:40:10.031Z,43.55
2019-06-07T15:42:51.360Z,43.51
2019-06-07T15:45:11.307Z,43.42
2019-06-07T15:47:40.735Z,44.81
2019-06-07T15:50:11.020Z,44.38
2019-06-07T15:52:41.267Z,44.97
2019-06-07T15:55:11.977Z,45.52
2019-06-07T15:57:42.167Z,46.73
2019-06-07T16:00:14.083Z,47.04
2019-06-07T16:02:43.056Z,45.95
2019-06-07T16:05:13.072Z,45.85
2019-06-07T16:07:42.913Z,46.21
2019-06-07T16:10:15.296Z,46.84
2019-06-07T16:12:59.087Z,46.68
2019-06-07T16:15:15.354Z,47.71
2019-06-07T16:17:44.289Z,48.06
2019-06-07T16:20:13.957Z,48.73
2019-06-07T16:22:43.988Z,48.73
2019-06-07T16:25:14.718Z,48.34
2019-06-07T16:27:44.816Z,48.47
2019-06-07T16:30:14.321Z,48.42
2019-06-07T16:32:44.261Z,49.12
2019-06-07T16:35:14.928Z,49.94
2019-06-07T16:37:45.806Z,50.38
2019-06-07T16:40:15.309Z,50.56
2019-06-07T16:42:45.097Z,49.49
2019-06-07T16:45:15.304Z,49.86
2019-06-07T16:47:47.485Z,50.69
2019-06-07T16:50:15.203Z,50.48
2019-06-07T16:52:44.898Z,50.89
2019-06-07T16:55:14.954Z,51.53
2019-06-07T16:57:45.066Z,52.11
2019-06-07T17:00:15.129Z,52.18
2019-06-07T17:02:44.993Z,52.44
2019-06-07T17:05:16.264Z,51.90
2019-06-07T17:07:46.720Z,51.17
2019-06-07T17:10:16.190Z,51.38
2019-06-07T17:12:46.813Z,51.75
2019-06-07T17:15:16.593Z,50.49
2019-06-07T17:17:46.957Z,49.82
2019-06-07T17:20:16.906Z,49.95
2019-06-07T17:22:45.826Z,50.65
2019-06-07T17:25:16.202Z,50.11
2019-06-07T17:27:46.411Z,49.24
2019-06-07T17:30:17.539Z,49.53
2019-06-07T17:32:55.231Z,48.63
2019-06-07T17:35:18.941Z,48.80
2019-06-07T17:37:49.559Z,48.42
2019-06-07T17:40:18.796Z,47.52
2019-06-07T17:42:48.965Z,47.49
2019-06-07T17:45:19.635Z,47.65
2019-06-07T17:47:49.736Z,47.45
2019-06-07T17:50:20.265Z,48.19
2019-06-07T17:52:50.203Z,48.07
2019-06-07T17:55:19.482Z,47.80
2019-06-07T17:57:48.762Z,48.64
2019-06-07T18:00:28.806Z,48.45
2019-06-07T18:02:51.083Z,48.14
2019-06-07T18:05:20.273Z,48.55
2019-06-07T18:07:51.859Z,49.22
2019-06-07T18:10:38.384Z,49.02
2019-06-07T18:13:08.331Z,49.09
2019-06-07T18:15:42.470Z,49.48
2019-06-07T18:18:11.763Z,48.86
2019-06-07T18:20:41.063Z,48.35
2019-06-07T18:23:11.958Z,49.91
2019-06-07T18:25:41.095Z,48.91
2019-06-07T18:28:10.706Z,48.33
2019-06-07T18:30:39.700Z,48.43
2019-06-07T18:33:09.615Z,48.65
2019-06-07T18:35:38.607Z,47.71
2019-06-07T18:38:10.728Z,47.30
2019-06-07T18:40:38.950Z,47.61
2019-06-07T18:43:08.822Z,47.08
2019-06-07T18:45:37.655Z,47.36
2019-06-07T18:48:07.356Z,47.11
2019-06-07T18:50:36.915Z,46.70
2019-06-07T18:53:06.078Z,46.82
2019-06-07T18:55:36.298Z,46.88
2019-06-07T18:58:05.304Z,47.47
2019-06-07T19:00:35.855Z,47.07
2019-06-07T19:03:05.116Z,47.53
2019-06-07T19:05:34.006Z,47.13
2019-06-07T19:08:02.898Z,46.85
2019-06-07T19:10:31.814Z,46.69
2019-06-07T19:13:00.886Z,47.11
2019-06-07T19:15:30.289Z,46.92
2019-06-07T19:18:00.733Z,47.19
2019-06-07T19:20:30.240Z,47.59
2019-06-07T19:23:00.552Z,47.69
2019-06-07T19:25:29.543Z,47.44
2019-06-07T19:27:59.136Z,47.73
2019-06-07T19:30:28.348Z,47.58
2019-06-07T19:32:57.404Z,47.75
2019-06-07T19:35:26.231Z,47.67
2019-06-07T19:37:55.874Z,47.44
2019-06-07T19:40:24.833Z,47.43
2019-06-07T19:42:54.144Z,46.88
2019-06-07T19:45:30.461Z,47.23
2019-06-07T19:47:54.487Z,47.25
2019-06-07T19:50:23.373Z,47.09
2019-06-07T19:52:53.092Z,47.24
2019-06-07T19:55:22.277Z,47.97
2019-06-07T19:57:53.268Z,47.90
2019-06-07T20:00:22.948Z,48.67
2019-06-07T20:02:53.684Z,49.11
2019-06-07T20:05:22.833Z,49.73
2019-06-07T20:07:51.653Z,50.28
2019-06-07T20:10:20.744Z,51.21
2019-06-07T20:12:49.644Z,51.13
2019-06-07T20:15:28.615Z,55.72
2019-06-07T20:17:49.158Z,57.88
2019-06-07T20:20:18.459Z,57.56
2019-06-07T20:22:47.354Z,63.68
2019-06-07T20:25:16.565Z,61.29
2019-06-07T20:27:45.479Z,64.55
2019-06-07T20:30:15.178Z,64.05
2019-06-07T20:32:44.052Z,64.22
2019-06-07T20:35:13.755Z,67.57
2019-06-07T20:37:42.648Z,69.35
2019-06-07T20:40:23.450Z,69.78
2019-06-07T20:42:43.710Z,69.92
2019-06-07T20:45:14.038Z,68.07
2019-06-07T20:47:44.574Z,69.21
2019-06-07T20:50:13.472Z,69.79
2019-06-07T20:52:42.547Z,71.92
2019-06-07T20:55:12.472Z,73.07
2019-06-07T20:57:41.465Z,70.17
2019-06-07T21:00:21.113Z,71.84
2019-06-07T21:02:43.337Z,71.83
2019-06-07T21:05:12.429Z,72.65
2019-06-07T21:07:41.325Z,70.49
2019-06-07T21:10:11.389Z,71.01
2019-06-07T21:12:40.333Z,70.64
2019-06-07T21:15:14.152Z,70.28
2019-06-07T21:17:41.797Z,69.29
2019-06-07T21:20:14.266Z,70.43
2019-06-07T21:22:42.249Z,71.58
2019-06-07T21:25:12.300Z,70.70
2019-06-07T21:27:41.158Z,69.91
2019-06-07T21:30:11.630Z,68.87
2019-06-07T21:32:41.034Z,69.66
2019-06-07T21:35:12.208Z,71.57
2019-06-07T21:37:41.218Z,72.17
2019-06-07T21:40:12.229Z,73.52
2019-06-07T21:42:41.159Z,72.10
2019-06-07T21:45:11.818Z,73.42
2019-06-07T21:47:40.786Z,72.20
2019-06-07T21:50:12.665Z,73.36
2019-06-07T21:52:41.640Z,73.16
2019-06-07T21:55:11.616Z,73.69
2019-06-07T21:57:40.447Z,72.75
2019-06-07T22:00:24.942Z,73.52
2019-06-07T22:02:54.004Z,73.50
2019-06-07T22:05:22.890Z,74.39
2019-06-07T22:07:51.783Z,74.13
2019-06-07T22:10:20.883Z,72.82
2019-06-07T22:12:49.769Z,71.66
2019-06-07T22:15:33.010Z,72.69
2019-06-07T22:17:49.393Z,73.08
2019-06-07T22:20:18.285Z,72.24
2019-06-07T22:22:47.176Z,70.54
2019-06-07T22:25:16.154Z,69.71
2019-06-07T22:27:44.961Z,69.97
2019-06-07T22:30:15.298Z,69.78
2019-06-07T22:32:44.176Z,68.95
2019-06-07T22:35:13.271Z,67.71
2019-06-07T22:37:42.164Z,67.92
2019-06-07T22:40:12.442Z,69.26
2019-06-07T22:42:41.481Z,66.55
2019-06-07T22:45:11.258Z,67.83
2019-06-07T22:47:40.083Z,68.68
2019-06-07T22:50:10.705Z,67.48
2019-06-07T22:52:39.811Z,68.97
2019-06-07T22:55:11.950Z,70.67
2019-06-07T22:57:57.368Z,71.23
2019-06-07T23:00:28.154Z,72.39
2019-06-07T23:02:57.298Z,72.80
2019-06-07T23:05:26.187Z,73.90
2019-06-07T23:07:55.075Z,72.94
2019-06-07T23:10:23.971Z,72.94
2019-06-07T23:12:55.929Z,74.51
2019-06-07T23:15:24.823Z,71.74
2019-06-07T23:17:53.717Z,72.05
2019-06-07T23:20:22.616Z,71.63
2019-06-07T23:22:51.495Z,71.42
2019-06-07T23:25:24.200Z,71.03
2019-06-07T23:27:51.017Z,70.54
2019-06-07T23:30:21.874Z,71.57
2019-06-07T23:32:50.860Z,70.37
2019-06-07T23:35:21.196Z,70.39
2019-06-07T23:37:53.054Z,71.10
2019-06-07T23:40:21.923Z,71.76
2019-06-07T23:42:50.822Z,72.23
2019-06-07T23:45:19.705Z,72.26
2019-06-07T23:47:48.495Z,72.06
2019-06-07T23:50:17.716Z,72.22
2019-06-07T23:52:46.790Z,73.15
2019-06-07T23:55:16.087Z,72.41
2019-06-07T23:57:44.879Z,72.44
